Time;durP1;ratioP1;P1;durP2;ratioP2;P2;SDS_P1;SDS_P2;PMS_P1;PMS_P2;Temp;Humidity;BMP_temperature;BMP_pressure;BME280_temperature;BME280_humidity;BME280_pressure;Samples;Min_cycle;Max_cycle;Signal;HPM_P1;HPM_P2
2022/05/30 00:01:07;;;;;;;2.83;1.30;;;;;;;19.45;38.75;101081.44;5015453;28;20034;-66
2022/05/30 00:03:33;;;;;;;6.55;1.05;;;;;;;19.42;38.31;101079.09;5015187;28;20498;-67
2022/05/30 00:05:58;;;;;;;1.55;0.93;;;;;;;19.41;39.25;101082.81;5015016;28;20018;-66
2022/05/30 00:08:23;;;;;;;5.65;1.55;;;;;;;19.38;38.82;101080.44;5014881;28;20077;-67
2022/05/30 00:10:49;;;;;;;6.05;1.02;;;;;;;19.36;38.71;101077.06;5015081;28;20101;-66
2022/05/30 00:13:14;;;;;;;7.28;1.60;;;;;;;19.36;38.83;101079.78;5015157;28;20033;-67
2022/05/30 00:15:40;;;;;;;3.45;0.90;;;;;;;19.33;39.09;101070.13;5014780;28;20088;-67
2022/05/30 00:18:09;;;;;;;2.63;0.90;;;;;;;19.31;39.43;101069.47;5014984;28;20446;-67
2022/05/30 00:20:34;;;;;;;5.47;1.67;;;;;;;19.30;39.23;101066.91;5015230;28;20108;-67
2022/05/30 00:23:00;;;;;;;4.80;1.08;;;;;;;19.28;39.29;101074.41;5046907;28;20491;-67
2022/05/30 00:25:25;;;;;;;3.65;1.10;;;;;;;19.27;39.06;101075.41;5014546;28;20036;-66
2022/05/30 00:27:50;;;;;;;5.03;1.48;;;;;;;19.24;39.28;101073.06;5014562;28;20026;-67
2022/05/30 00:30:16;;;;;;;1.95;1.10;;;;;;;19.22;39.77;101066.97;5014331;28;20120;-67
2022/05/30 00:32:42;;;;;;;4.47;1.05;;;;;;;19.19;39.37;101060.88;5014356;28;20029;-66
2022/05/30 00:35:08;;;;;;;3.92;1.17;;;;;;;19.20;39.70;101067.16;5012705;28;20022;-66
2022/05/30 00:37:34;;;;;;;5.30;1.55;;;;;;;19.18;38.70;101061.88;5046216;28;20034;-66
2022/05/30 00:39:59;;;;;;;5.57;1.08;;;;;;;19.17;39.71;101062.06;5013196;28;20530;-67
2022/05/30 00:42:26;;;;;;;3.28;1.27;;;;;;;19.15;39.26;101064.97;5014235;28;20491;-67
2022/05/30 00:44:52;;;;;;;8.38;1.10;;;;;;;19.15;39.50;101059.53;5014281;28;20030;-67
2022/05/30 00:47:19;;;;;;;6.95;1.42;;;;;;;19.15;39.24;101067.69;5013441;28;20156;-66
2022/05/30 00:49:46;;;;;;;4.25;0.88;;;;;;;19.13;39.84;101060.72;5013087;28;20083;-67
2022/05/30 00:52:23;;;;;;;5.53;1.05;;;;;;;19.12;40.32;101061.78;5013139;28;20551;-67
2022/05/30 00:54:52;;;;;;;6.50;1.05;;;;;;;19.11;39.67;101063.66;5046156;28;20463;-66
2022/05/30 00:57:20;;;;;;;3.00;1.00;;;;;;;19.08;39.67;101055.84;5046161;28;20081;-67
2022/05/30 01:00:11;;;;;;;6.03;1.20;;;;;;;19.10;39.87;101055.66;5045208;28;20387;-66
2022/05/30 01:02:38;;;;;;;8.52;1.25;;;;;;;19.07;39.78;101051.44;5013991;28;20392;-67
2022/05/30 01:07:50;;;;;;;5.35;1.42;;;;;;;19.02;40.20;101050.28;5013849;28;20061;-67
2022/05/30 01:10:19;;;;;;;4.90;0.93;;;;;;;19.01;40.34;101052.13;5013905;28;20041;-66
2022/05/30 01:12:52;;;;;;;3.72;1.60;;;;;;;18.99;39.60;101058.78;5013901;28;20139;-67
2022/05/30 01:15:23;;;;;;;5.32;1.27;;;;;;;18.96;39.49;101050.97;5014052;28;20413;-67
2022/05/30 01:17:50;;;;;;;5.13;1.00;;;;;;;18.94;40.02;101056.59;5014700;28;20028;-67
2022/05/30 01:20:48;;;;;;;2.10;0.88;;;;;;;18.93;39.92;101049.47;5045708;28;20021;-67
2022/05/30 01:23:23;;;;;;;1.98;1.17;;;;;;;18.91;40.28;101056.09;5029421;28;20553;-67
2022/05/30 01:26:10;;;;;;;3.33;1.60;;;;;;;18.88;39.83;101054.59;5013880;28;20026;-66
2022/05/30 01:29:02;;;;;;;8.35;2.47;;;;;;;18.86;40.25;101050.38;5013981;28;20038;-66
2022/05/30 01:31:28;;;;;;;4.60;1.08;;;;;;;18.82;40.61;101041.72;5045825;28;20025;-66
2022/05/30 01:33:53;;;;;;;4.68;1.20;;;;;;;18.81;40.63;101042.78;5013779;28;20361;-67
2022/05/30 01:36:27;;;;;;;1.13;1.00;;;;;;;18.79;40.60;101033.94;5012472;28;20025;-66
2022/05/30 01:38:53;;;;;;;1.98;1.35;;;;;;;18.78;40.25;101034.97;5045705;28;20140;-66
2022/05/30 01:41:18;;;;;;;1.40;1.10;;;;;;;18.75;40.36;101032.63;5013987;28;20100;-67
2022/05/30 01:43:45;;;;;;;3.47;1.08;;;;;;;18.74;40.87;101030.91;5013657;28;20026;-67
2022/05/30 01:46:13;;;;;;;5.22;1.58;;;;;;;18.71;40.75;101033.97;5013882;28;20029;-66
2022/05/30 01:48:38;;;;;;;6.90;1.50;;;;;;;18.70;40.47;101032.31;5017254;28;20049;-66
2022/05/30 01:51:04;;;;;;;5.95;1.48;;;;;;;18.69;40.02;101029.75;5017746;28;20533;-67
2022/05/30 01:53:30;;;;;;;2.70;1.55;;;;;;;18.67;40.25;101032.66;5017565;28;20037;-67
2022/05/30 01:55:55;;;;;;;2.55;1.63;;;;;;;18.66;40.37;101030.94;5016695;28;20468;-67
2022/05/30 01:58:21;;;;;;;8.57;1.70;;;;;;;18.64;40.82;101032.16;5017334;28;20383;-67
2022/05/30 02:00:46;;;;;;;1.67;1.00;;;;;;;18.66;40.48;101024.69;5049496;28;20112;-67
2022/05/30 02:03:12;;;;;;;1.73;1.45;;;;;;;18.64;40.50;101021.31;5017702;28;20038;-67
2022/05/30 02:05:37;;;;;;;6.78;1.50;;;;;;;18.62;41.04;101029.59;5017400;28;20427;-67
2022/05/30 02:08:03;;;;;;;2.47;1.08;;;;;;;18.61;40.41;101019.78;5017183;28;20046;-67
2022/05/30 02:10:31;;;;;;;5.40;1.20;;;;;;;18.60;41.22;101026.22;5016311;28;20034;-67
2022/05/30 02:12:57;;;;;;;3.33;1.30;;;;;;;18.60;41.23;101021.66;5017243;28;20541;-66
2022/05/30 02:15:22;;;;;;;5.47;1.20;;;;;;;18.59;41.17;101021.84;5016980;28;20030;-67
2022/05/30 02:17:48;;;;;;;3.90;2.53;;;;;;;18.58;40.84;101022.84;5015841;28;20022;-67
2022/05/30 02:20:13;;;;;;;10.85;3.92;;;;;;;18.57;41.13;101016.56;5017005;28;20072;-67
2022/05/30 02:22:39;;;;;;;6.00;1.67;;;;;;;18.56;41.43;101014.06;5017408;28;20018;-66
2022/05/30 02:25:06;;;;;;;5.70;1.55;;;;;;;18.54;41.27;101011.50;5016924;28;20022;-67
2022/05/30 02:27:31;;;;;;;4.22;1.00;;;;;;;18.52;41.58;101001.84;5017103;28;20388;-66
2022/05/30 02:29:56;;;;;;;3.92;1.00;;;;;;;18.50;41.41;101002.03;5017217;28;20026;-66
2022/05/30 02:32:22;;;;;;;3.75;1.50;;;;;;;18.50;41.73;101006.63;5015555;28;20026;-67
2022/05/30 02:37:45;;;;;;;3.28;1.55;;;;;;;18.45;42.05;101006.25;5026381;28;20050;-66
2022/05/30 02:40:11;;;;;;;6.07;1.45;;;;;;;18.40;41.29;101009.47;5016925;28;20156;-67
2022/05/30 02:42:36;;;;;;;5.75;1.38;;;;;;;18.42;41.35;101009.31;5016504;28;20086;-67
2022/05/30 02:45:01;;;;;;;2.90;1.55;;;;;;;18.39;41.54;101006.97;5016499;28;20513;-67
2022/05/30 02:47:27;;;;;;;2.00;1.05;;;;;;;18.37;40.88;101009.00;5016583;28;20017;-67
2022/05/30 02:49:52;;;;;;;7.28;1.83;;;;;;;18.36;41.47;101012.75;5016448;28;20519;-67
2022/05/30 02:52:18;;;;;;;4.28;1.73;;;;;;;18.33;41.72;101013.09;5016404;28;20034;-67
2022/05/30 02:54:43;;;;;;;2.85;1.45;;;;;;;18.32;41.31;101011.38;5016537;28;20160;-67
2022/05/30 02:57:08;;;;;;;3.65;1.33;;;;;;;18.30;41.99;101017.00;5016129;28;20026;-67
2022/05/30 02:59:34;;;;;;;2.90;1.38;;;;;;;18.29;41.58;101011.72;5015096;28;20026;-67
2022/05/30 03:01:59;;;;;;;2.85;1.25;;;;;;;18.26;42.40;101012.91;5016450;28;20033;-67
2022/05/30 03:04:24;;;;;;;3.63;1.67;;;;;;;18.24;41.79;101009.53;5015971;28;20030;-68
2022/05/30 03:06:51;;;;;;;6.13;2.17;;;;;;;18.22;41.56;101016.16;5015751;28;20416;-67
2022/05/30 03:09:17;;;;;;;3.92;1.42;;;;;;;18.20;41.65;101018.22;5047658;28;20033;-67
2022/05/30 03:11:43;;;;;;;3.47;1.63;;;;;;;18.18;41.79;101018.38;5015815;28;20080;-67
2022/05/30 03:14:08;;;;;;;5.22;2.00;;;;;;;18.16;42.06;101019.56;5015837;28;20026;-67
2022/05/30 03:16:34;;;;;;;5.85;1.85;;;;;;;18.15;41.77;101026.84;5015626;28;20503;-67
2022/05/30 03:18:59;;;;;;;1.88;1.40;;;;;;;18.15;42.76;101026.84;5015761;28;20025;-66
2022/05/30 03:21:25;;;;;;;10.32;2.08;;;;;;;18.15;41.79;101028.72;5015792;28;20069;-67
2022/05/30 03:23:52;;;;;;;2.83;1.52;;;;;;;18.13;42.03;101025.34;5015796;28;20029;-66
2022/05/30 03:26:17;;;;;;;2.65;1.67;;;;;;;18.13;42.11;101036.19;5015997;28;20105;-66
2022/05/30 03:28:43;;;;;;;6.72;1.88;;;;;;;18.12;42.10;101027.19;5015809;28;20061;-67
2022/05/30 03:31:08;;;;;;;4.47;1.60;;;;;;;18.12;41.81;101031.78;5015775;28;20022;-67
2022/05/30 03:33:38;;;;;;;6.82;1.92;;;;;;;18.11;42.14;101033.66;5015400;28;20395;-67
2022/05/30 03:36:14;;;;;;;5.32;2.20;;;;;;;18.11;42.31;101035.53;5015422;28;20057;-67
2022/05/30 03:38:40;;;;;;;6.13;2.22;;;;;;;18.10;41.84;101034.66;5015275;28;20026;-67
2022/05/30 03:41:05;;;;;;;11.93;2.58;;;;;;;18.10;42.41;101033.81;5047227;28;20032;-67
2022/05/30 03:43:30;;;;;;;4.07;1.90;;;;;;;18.09;42.56;101037.56;5015458;28;20032;-67
2022/05/30 03:45:56;;;;;;;4.93;2.28;;;;;;;18.09;42.67;101040.28;5015082;28;20068;-67
2022/05/30 03:48:23;;;;;;;3.05;1.95;;;;;;;18.10;42.30;101039.25;5014067;28;20028;-67
2022/05/30 03:50:49;;;;;;;9.65;3.40;;;;;;;18.11;41.66;101046.38;5015223;28;20041;-68
2022/05/30 03:53:14;;;;;;;8.48;2.30;;;;;;;18.11;42.99;101041.78;5015180;28;20372;-66
2022/05/30 03:55:42;;;;;;;7.22;2.63;;;;;;;18.12;42.27;101043.47;5015135;28;20026;-67
2022/05/30 03:58:10;;;;;;;5.18;2.00;;;;;;;18.14;41.99;101040.59;5015125;28;20060;-66
2022/05/30 04:00:36;;;;;;;5.88;1.63;;;;;;;18.13;42.76;101044.31;5014996;28;20383;-67
2022/05/30 04:03:02;;;;;;;3.20;1.95;;;;;;;18.14;42.97;101040.59;5014934;28;20037;-67
2022/05/30 04:05:28;;;;;;;8.60;2.15;;;;;;;18.15;42.73;101044.97;5015133;28;20075;-67
2022/05/30 04:07:54;;;;;;;6.72;2.25;;;;;;;18.17;42.21;101051.09;5014733;28;20521;-66
2022/05/30 04:10:20;;;;;;;3.83;2.22;;;;;;;18.17;42.87;101040.25;5014620;28;20108;-67
2022/05/30 04:12:45;;;;;;;6.18;2.30;;;;;;;18.17;42.14;101048.38;5014896;28;20545;-67
2022/05/30 04:15:21;;;;;;;5.95;1.92;;;;;;;18.18;43.16;101047.34;5030422;28;20029;-67
2022/05/30 04:17:47;;;;;;;2.80;1.88;;;;;;;18.18;42.45;101045.50;5034554;28;20124;-67
2022/05/30 04:20:13;;;;;;;4.90;2.33;;;;;;;18.20;42.54;101045.34;5033308;28;20118;-66
2022/05/30 04:22:38;;;;;;;11.98;3.05;;;;;;;18.20;42.58;101045.34;5033054;28;20075;-67
2022/05/30 04:25:04;;;;;;;7.03;2.10;;;;;;;18.21;42.46;101047.00;5034040;28;20044;-67
2022/05/30 04:27:29;;;;;;;8.95;1.92;;;;;;;18.23;42.06;101050.41;5034535;28;20033;-67
2022/05/30 04:29:55;;;;;;;8.52;2.00;;;;;;;18.25;42.49;101045.66;5034308;28;20041;-66
2022/05/30 04:32:20;;;;;;;7.63;2.15;;;;;;;18.28;42.56;101048.03;5034451;28;20037;-66
2022/05/30 04:34:46;;;;;;;10.75;3.22;;;;;;;18.31;43.06;101047.69;5034250;28;20069;-67
2022/05/30 04:37:11;;;;;;;6.25;2.42;;;;;;;18.35;42.98;101047.16;5032811;28;20025;-67
2022/05/30 04:39:37;;;;;;;6.63;1.80;;;;;;;18.38;43.35;101043.22;5034404;28;20026;-66
2022/05/30 04:42:03;;;;;;;7.03;2.13;;;;;;;18.39;42.85;101045.78;5034293;28;20057;-67
2022/05/30 04:44:29;;;;;;;10.18;2.58;;;;;;;18.43;42.73;101048.97;5032912;28;20124;-67
2022/05/30 04:46:57;;;;;;;6.68;2.13;;;;;;;18.46;42.89;101043.19;5033908;28;20036;-67
2022/05/30 04:49:23;;;;;;;6.22;2.53;;;;;;;18.49;43.12;101045.59;5034061;28;20475;-67
2022/05/30 04:51:49;;;;;;;7.43;2.08;;;;;;;18.52;42.92;101047.97;5033846;28;20036;-67
2022/05/30 04:54:15;;;;;;;3.83;1.80;;;;;;;18.54;41.96;101044.06;5033818;28;20025;-66
2022/05/30 04:56:41;;;;;;;5.38;2.47;;;;;;;18.57;42.04;101042.84;5033910;28;20093;-67
2022/05/30 04:59:07;;;;;;;6.18;2.03;;;;;;;18.60;42.36;101042.50;5033889;28;20026;-67
2022/05/30 05:01:32;;;;;;;3.90;1.77;;;;;;;18.66;42.21;101057.25;5033806;28;20021;-66
2022/05/30 05:03:57;;;;;;;3.75;1.73;;;;;;;18.67;41.72;101054.38;5033912;28;20514;-67
2022/05/30 05:06:23;;;;;;;2.63;2.10;;;;;;;18.70;42.09;101059.44;5033643;28;20017;-66
2022/05/30 05:08:59;;;;;;;4.57;2.20;;;;;;;18.76;41.90;101064.16;5033738;28;20025;-67
2022/05/30 05:11:27;;;;;;;6.47;2.47;;;;;;;18.80;42.64;101054.63;5032722;28;20423;-66
2022/05/30 05:13:53;;;;;;;4.97;2.03;;;;;;;18.84;42.42;101056.00;5032857;28;20097;-66
2022/05/30 05:16:20;;;;;;;5.50;2.10;;;;;;;18.89;42.07;101059.00;5033577;28;20108;-67
2022/05/30 05:18:47;;;;;;;5.47;1.80;;;;;;;18.91;42.48;101062.38;5033657;28;20029;-67
2022/05/30 05:21:20;;;;;;;7.10;2.15;;;;;;;18.95;42.10;101063.75;5033118;28;20391;-67
2022/05/30 05:23:46;;;;;;;5.53;3.03;;;;;;;19.00;42.41;101066.75;5033666;28;20029;-67
2022/05/30 05:26:11;;;;;;;8.30;2.47;;;;;;;19.03;42.32;101066.41;5033722;28;20022;-67
2022/05/30 05:28:37;;;;;;;6.70;2.20;;;;;;;19.08;41.51;101080.28;5033578;28;20483;-67
2022/05/30 05:31:02;;;;;;;7.10;2.20;;;;;;;19.12;41.91;101075.34;5032503;28;20406;-67
2022/05/30 05:33:28;;;;;;;8.23;2.33;;;;;;;19.17;41.76;101073.78;5033691;28;20104;-67
2022/05/30 05:35:53;;;;;;;7.97;2.38;;;;;;;19.19;42.27;101071.75;5033396;28;20041;-67
2022/05/30 05:38:19;;;;;;;8.73;3.28;;;;;;;19.25;42.06;101081.03;5033754;28;20038;-66
2022/05/30 05:40:45;;;;;;;6.53;2.38;;;;;;;19.32;41.34;101075.75;5033513;28;20064;-65
2022/05/30 05:43:11;;;;;;;2.45;1.98;;;;;;;19.37;41.77;101084.19;5032655;28;20394;-67
2022/05/30 05:45:38;;;;;;;5.93;2.22;;;;;;;19.40;41.52;101087.41;5033417;28;20033;-67
2022/05/30 05:48:04;;;;;;;7.00;2.35;;;;;;;19.44;41.53;101093.34;5033628;28;20112;-67
2022/05/30 05:50:29;;;;;;;10.05;2.38;;;;;;;19.48;41.34;101091.97;5033708;28;20159;-67
2022/05/30 05:52:55;;;;;;;6.97;2.38;;;;;;;19.53;41.57;101087.69;5033336;28;20032;-67
2022/05/30 05:55:21;;;;;;;3.47;1.42;;;;;;;19.58;41.41;101087.97;5033591;28;20368;-67
2022/05/30 05:57:47;;;;;;;8.32;3.10;;;;;;;19.63;41.03;101090.13;5032103;28;20036;-67
2022/05/30 06:00:13;;;;;;;4.30;2.30;;;;;;;19.70;40.77;101091.13;5033177;28;20101;-67
2022/05/30 06:02:39;;;;;;;9.77;2.75;;;;;;;19.76;41.25;101091.22;5033569;28;20087;-67
2022/05/30 06:05:05;;;;;;;3.25;1.80;;;;;;;19.82;41.39;101095.06;5033393;28;20033;-67
2022/05/30 06:07:32;;;;;;;14.30;3.42;;;;;;;19.88;41.05;101097.06;5033019;28;20041;-67
2022/05/30 06:09:58;;;;;;;10.95;2.30;;;;;;;19.97;40.98;101100.56;5032011;28;20028;-67
2022/05/30 06:12:23;;;;;;;7.82;2.67;;;;;;;20.06;41.19;101102.19;5033744;28;20025;-67
2022/05/30 06:14:48;;;;;;;9.15;1.67;;;;;;;20.16;40.94;101097.31;5033269;28;20022;-67
2022/05/30 06:17:14;;;;;;;9.23;3.08;;;;;;;20.24;41.11;101100.84;5032863;28;20036;-67
2022/05/30 06:19:39;;;;;;;4.88;1.85;;;;;;;20.36;40.28;101100.41;5033320;28;20028;-67
2022/05/30 06:22:06;;;;;;;5.28;1.67;;;;;;;20.45;40.70;101102.00;5033230;28;20397;-67
2022/05/30 06:24:31;;;;;;;6.45;1.80;;;;;;;20.54;40.09;101107.19;5033033;28;20032;-67
2022/05/30 06:26:56;;;;;;;8.13;1.90;;;;;;;20.63;40.40;101099.78;5032993;28;20025;-67
2022/05/30 06:29:22;;;;;;;3.22;1.30;;;;;;;20.70;40.30;101097.97;5032930;28;20029;-66
2022/05/30 06:31:47;;;;;;;4.57;1.70;;;;;;;20.82;40.48;101099.19;5031063;28;20037;-67
2022/05/30 06:34:12;;;;;;;11.00;1.85;;;;;;;20.96;39.89;101094.78;5034052;28;20036;-67
2022/05/30 06:36:40;;;;;;;7.20;1.92;;;;;;;21.05;40.28;101105.34;5036431;28;20021;-67
2022/05/30 06:39:06;;;;;;;5.03;1.42;;;;;;;21.17;39.55;101101.16;5036721;28;20025;-67
2022/05/30 06:41:32;;;;;;;7.65;1.98;;;;;;;21.30;39.96;101111.38;5036608;28;20030;-67
2022/05/30 06:44:02;;;;;;;5.70;1.52;;;;;;;21.40;39.78;101101.84;5036700;28;20021;-66
2022/05/30 06:46:28;;;;;;;7.70;1.80;;;;;;;21.55;39.08;101100.94;5036510;28;20486;-66
2022/05/30 06:48:56;;;;;;;4.20;2.67;;;;;;;21.66;39.53;101104.00;5035168;28;20087;-67
2022/05/30 06:51:24;;;;;;;3.70;1.63;;;;;;;21.76;39.04;101103.66;5036770;28;20037;-67
2022/05/30 06:53:49;;;;;;;8.38;2.10;;;;;;;21.84;39.09;101103.53;5036781;28;20418;-67
2022/05/30 06:56:25;;;;;;;5.07;1.73;;;;;;;21.93;39.09;101107.84;5035860;28;20021;-67
2022/05/30 06:58:52;;;;;;;7.78;1.45;;;;;;;21.99;38.38;101105.19;5035834;28;20021;-67
2022/05/30 07:01:30;;;;;;;7.93;1.63;;;;;;;22.06;38.58;101116.16;5035209;28;20037;-67
2022/05/30 07:03:55;;;;;;;3.78;1.00;;;;;;;22.12;37.75;101115.38;5034997;28;20034;-67
2022/05/30 07:06:31;;;;;;;6.80;1.30;;;;;;;22.18;37.37;101109.13;5035920;28;20024;-67
2022/05/30 07:08:57;;;;;;;4.43;1.55;;;;;;;22.23;38.02;101109.38;5036027;28;20475;-66
2022/05/30 07:11:23;;;;;;;4.47;1.80;;;;;;;22.29;37.45;101115.91;5036025;28;20025;-67
2022/05/30 07:13:48;;;;;;;6.55;2.15;;;;;;;22.37;38.08;101119.34;5036010;28;20037;-67
2022/05/30 07:16:14;;;;;;;6.80;2.00;;;;;;;22.48;37.24;101120.66;5036028;28;20029;-67
2022/05/30 07:18:40;;;;;;;4.00;1.33;;;;;;;22.62;37.60;101120.56;5036124;28;20026;-66
2022/05/30 07:21:07;;;;;;;6.88;2.22;;;;;;;22.71;37.69;101115.81;5035641;28;20029;-67
2022/05/30 07:23:35;;;;;;;6.35;1.80;;;;;;;22.80;37.46;101124.69;5035892;28;20471;-67
2022/05/30 07:26:06;;;;;;;6.13;1.48;;;;;;;22.88;36.55;101110.88;5036045;28;20434;-67
2022/05/30 07:28:32;;;;;;;3.45;1.25;;;;;;;23.14;36.76;101119.22;5036109;28;20026;-67
2022/05/30 07:31:06;;;;;;;3.35;1.30;;;;;;;23.41;35.84;101107.34;5035907;28;20031;-67
2022/05/30 07:33:32;;;;;;;6.15;1.30;;;;;;;23.51;36.39;101118.72;5034233;28;20555;-67
2022/05/30 07:35:57;;;;;;;4.90;1.45;;;;;;;23.65;36.43;101109.50;5035580;28;20101;-67
2022/05/30 07:38:23;;;;;;;5.22;1.17;;;;;;;23.71;35.97;101118.75;5034406;28;20031;-67
2022/05/30 07:40:48;;;;;;;5.80;1.25;;;;;;;23.76;35.72;101117.09;5035457;28;20083;-67
2022/05/30 07:43:14;;;;;;;4.88;1.10;;;;;;;23.86;34.96;101111.22;5035056;28;20083;-67
2022/05/30 07:45:40;;;;;;;7.53;1.55;;;;;;;23.90;34.97;101106.19;5034999;28;20026;-67
2022/05/30 07:48:05;;;;;;;11.73;2.67;;;;;;;24.02;34.69;101116.28;5035213;28;20042;-67
2022/05/30 07:50:31;;;;;;;3.25;1.08;;;;;;;24.04;34.69;101107.84;5035458;28;20051;-68
2022/05/30 07:52:56;;;;;;;7.45;1.38;;;;;;;23.91;35.77;101107.84;5035323;28;20550;-67
2022/05/30 07:55:21;;;;;;;3.35;0.95;;;;;;;23.81;35.01;101108.28;5035123;28;20044;-67
2022/05/30 07:57:54;;;;;;;5.22;0.80;;;;;;;23.72;34.75;101110.38;5035441;28;20109;-67
2022/05/30 08:00:22;;;;;;;2.13;0.63;;;;;;;23.69;34.12;101109.94;5035277;28;20105;-67
2022/05/30 08:02:47;;;;;;;1.52;0.30;;;;;;;23.70;34.35;101112.44;5035296;28;20398;-67
2022/05/30 08:05:13;;;;;;;3.17;0.75;;;;;;;23.68;33.90;101114.56;5035143;28;20051;-67
2022/05/30 08:07:39;;;;;;;1.70;0.70;;;;;;;23.65;33.90;101104.03;5034855;28;20061;-67
2022/05/30 08:10:06;;;;;;;6.25;0.82;;;;;;;23.65;33.63;101109.50;5033750;28;20146;-67
2022/05/30 08:12:32;;;;;;;4.85;2.15;;;;;;;23.68;34.52;101109.09;5034893;28;20431;-67
2022/05/30 08:14:58;;;;;;;3.47;1.25;;;;;;;23.63;33.91;101108.88;5033508;28;20026;-67
2022/05/30 08:17:24;;;;;;;6.47;1.52;;;;;;;23.56;34.29;101105.25;5034698;28;20483;-67
2022/05/30 08:19:49;;;;;;;5.30;0.82;;;;;;;23.55;34.36;101116.44;5034692;28;20029;-67
2022/05/30 08:22:15;;;;;;;2.72;1.00;;;;;;;23.61;33.56;101116.44;5033250;28;20037;-67
2022/05/30 08:24:47;;;;;;;3.72;1.25;;;;;;;23.77;33.19;101102.38;5034622;28;20044;-66
2022/05/30 08:27:12;;;;;;;2.88;0.60;;;;;;;24.44;32.57;101114.19;5033559;28;20029;-67
2022/05/30 08:29:38;;;;;;;5.93;1.10;;;;;;;24.76;33.48;101107.81;5034466;28;20112;-66
2022/05/30 08:32:07;;;;;;;2.92;1.20;;;;;;;25.35;32.13;101107.59;5033035;28;20021;-67
2022/05/30 08:34:36;;;;;;;2.67;0.93;;;;;;;25.98;31.86;101114.00;5034382;28;20021;-67
2022/05/30 08:37:04;;;;;;;3.40;0.88;;;;;;;26.62;31.33;101105.41;5034231;28;20436;-67
2022/05/30 08:42:14;;;;;;;2.75;1.30;;;;;;;26.99;31.34;101109.03;5034045;28;20083;-66
2022/05/30 08:44:40;;;;;;;8.18;1.88;;;;;;;27.16;30.63;101115.59;5033999;28;20033;-67
2022/05/30 08:47:44;;;;;;;4.40;1.10;;;;;;;27.00;30.61;101108.81;5033932;28;20045;-67
2022/05/30 08:50:21;;;;;;;2.40;0.88;;;;;;;26.79;31.02;101113.94;5023268;28;20033;-66
2022/05/30 08:52:59;;;;;;;4.53;0.73;;;;;;;26.52;31.37;101105.91;5032321;28;20390;-67
2022/05/30 08:56:01;;;;;;;4.85;1.02;;;;;;;26.20;30.88;101115.31;5031806;28;20384;-67
2022/05/30 08:58:42;;;;;;;5.25;0.93;;;;;;;25.86;30.93;101113.88;5032254;28;20499;-66
2022/05/30 09:01:11;;;;;;;2.10;0.57;;;;;;;25.58;31.39;101110.66;5032154;28;20021;-66
2022/05/30 09:04:08;;;;;;;3.15;0.60;;;;;;;25.27;31.20;101116.91;5032335;28;20038;-67
2022/05/30 09:06:41;;;;;;;2.83;0.80;;;;;;;24.98;31.49;101113.88;5014991;28;20020;-67
2022/05/30 09:09:13;;;;;;;4.32;1.15;;;;;;;24.71;31.80;101119.41;5030944;28;20014;-66
2022/05/30 09:12:08;;;;;;;5.03;1.65;;;;;;;24.46;32.06;101123.03;5033680;28;20099;-66
2022/05/30 09:14:43;;;;;;;4.78;1.55;;;;;;;24.26;31.91;101126.63;5027467;28;20038;-67
2022/05/30 09:17:16;;;;;;;5.70;1.02;;;;;;;24.06;31.91;101133.13;5031835;28;20071;-67
2022/05/30 09:19:42;;;;;;;6.25;1.80;;;;;;;23.85;32.20;101136.03;5029622;28;20056;-67
2022/05/30 09:22:08;;;;;;;6.57;1.27;;;;;;;23.65;32.95;101131.38;5031301;28;20034;-68
2022/05/30 09:24:35;;;;;;;4.95;1.02;;;;;;;23.46;33.38;101131.31;5017239;28;20028;-65
2022/05/30 09:27:02;;;;;;;2.63;1.23;;;;;;;23.30;33.06;101118.00;5031337;28;20009;-67
2022/05/30 09:29:39;;;;;;;4.15;2.25;;;;;;;23.19;33.33;101125.75;5032901;28;20591;-67
2022/05/30 09:32:14;;;;;;;6.07;1.50;;;;;;;23.09;32.78;101124.41;5029282;28;20402;-67
2022/05/30 09:34:46;;;;;;;2.35;0.98;;;;;;;23.04;33.38;101124.19;5029046;28;20031;-67
2022/05/30 09:37:34;;;;;;;4.18;1.15;;;;;;;23.01;33.03;101132.78;5032006;28;20107;-66
2022/05/30 09:40:00;;;;;;;4.05;1.13;;;;;;;22.97;33.66;101126.06;5032328;28;20022;-67
2022/05/30 09:42:32;;;;;;;5.38;1.10;;;;;;;22.98;33.30;101128.56;5031660;28;20030;-67
2022/05/30 09:45:18;;;;;;;7.07;1.38;;;;;;;23.00;32.68;101131.13;5031511;28;20025;-67
2022/05/30 09:48:10;;;;;;;5.00;1.02;;;;;;;23.03;33.54;101130.72;5027729;28;20091;-67
2022/05/30 09:50:44;;;;;;;4.30;2.25;;;;;;;23.05;33.41;101128.63;5030961;28;20021;-66
2022/05/30 09:53:10;;;;;;;4.18;0.93;;;;;;;23.12;32.99;101126.75;5030107;28;20017;-67
2022/05/30 09:55:38;;;;;;;6.80;1.08;;;;;;;23.21;32.85;101122.78;5035415;28;20028;-67
2022/05/30 09:58:05;;;;;;;2.83;1.10;;;;;;;23.39;33.39;101131.31;5027018;28;20095;-67
2022/05/30 10:00:42;;;;;;;2.58;1.00;;;;;;;23.45;32.19;101119.53;5028894;28;20037;-67
2022/05/30 10:03:31;;;;;;;3.53;1.30;;;;;;;23.53;32.18;101119.38;5029377;28;20120;-67
2022/05/30 10:06:20;;;;;;;4.10;1.20;;;;;;;23.63;32.48;101110.75;5030598;28;20014;-66
2022/05/30 10:08:46;;;;;;;3.55;1.00;;;;;;;23.72;32.30;101121.31;5031577;28;20136;-67
2022/05/30 10:11:32;;;;;;;5.53;0.80;;;;;;;23.84;32.63;101115.22;5035889;28;20471;-66
2022/05/30 10:13:58;;;;;;;4.07;1.00;;;;;;;24.02;32.06;101109.97;5034260;28;20029;-66
2022/05/30 10:16:41;;;;;;;5.20;0.80;;;;;;;24.12;31.75;101121.38;5035817;28;20029;-66
2022/05/30 10:19:09;;;;;;;3.70;0.73;;;;;;;24.23;31.68;101124.31;5038148;28;20021;-66
2022/05/30 10:28:14;;;;;;;8.15;1.60;;;;;;;24.27;32.25;101122.00;5034530;28;20025;-67
2022/05/30 10:30:27;;;;;;;2.45;1.58;;;;;;;25.05;30.76;101129.25;5033596;28;20470;-67
2022/05/30 10:32:52;;;;;;;3.08;0.70;;;;;;;25.33;30.58;101128.91;5034449;28;20022;-67
2022/05/30 10:35:34;;;;;;;9.60;1.70;;;;;;;26.96;29.35;101134.25;5034570;28;20075;-66
2022/05/30 10:38:15;;;;;;;3.67;2.00;;;;;;;28.07;27.63;101132.78;5034305;28;20463;-67
2022/05/30 10:41:08;;;;;;;4.97;1.70;;;;;;;29.16;26.99;101126.53;5034464;28;20414;-67
2022/05/30 10:43:56;;;;;;;4.22;1.27;;;;;;;30.39;26.24;101120.34;5034096;28;20033;-67
2022/05/30 10:46:30;;;;;;;2.45;2.25;;;;;;;31.33;25.75;101121.94;5034310;28;20021;-67
2022/05/30 10:49:16;;;;;;;2.50;0.73;;;;;;;31.88;25.54;101129.22;5034994;28;20029;-67
2022/05/30 10:51:48;;;;;;;2.58;0.80;;;;;;;31.01;26.15;101123.75;5034502;28;20033;-66
2022/05/30 10:54:27;;;;;;;4.43;0.70;;;;;;;30.41;26.32;101118.97;5035068;28;20024;-67
2022/05/30 10:56:55;;;;;;;2.03;0.52;;;;;;;29.91;26.92;101123.63;5052116;28;20080;-67
2022/05/30 10:59:43;;;;;;;1.30;0.40;;;;;;;29.45;26.41;101130.19;5016133;28;20035;-68
2022/05/30 11:02:19;;;;;;;11.02;2.40;;;;;;;29.03;26.75;101129.56;5065155;28;20410;-67
2022/05/30 11:04:51;;;;;;;1.45;0.63;;;;;;;28.63;27.10;101136.91;5050865;28;20021;-67
2022/05/30 11:07:36;;;;;;;1.58;0.50;;;;;;;28.25;26.76;101135.41;5046188;28;20453;-68
2022/05/30 11:10:21;;;;;;;4.43;0.88;;;;;;;27.86;27.17;101140.72;5048861;28;20020;-68
2022/05/30 11:12:55;;;;;;;1.83;0.57;;;;;;;27.52;28.00;101125.75;5053056;28;20433;-67
2022/05/30 11:15:25;;;;;;;3.47;1.00;;;;;;;27.26;27.82;101134.31;5048006;28;20021;-67
2022/05/30 11:17:51;;;;;;;3.50;0.75;;;;;;;27.01;27.17;101132.50;5051317;28;20044;-67
2022/05/30 11:20:23;;;;;;;5.78;1.10;;;;;;;26.80;27.53;101130.19;5052086;28;20025;-67
2022/05/30 11:22:51;;;;;;;2.95;1.00;;;;;;;26.62;28.36;101127.41;5051477;28;20045;-67
2022/05/30 11:25:30;;;;;;;3.83;1.00;;;;;;;26.45;28.09;101131.78;5051666;28;20467;-67
2022/05/30 11:28:20;;;;;;;4.60;0.70;;;;;;;26.31;28.10;101124.72;5066070;28;20024;-67
2022/05/30 11:31:05;;;;;;;2.90;0.68;;;;;;;26.14;28.20;101134.59;5049687;28;20104;-67
2022/05/30 11:33:49;;;;;;;3.58;1.15;;;;;;;26.00;27.86;101139.31;5052485;28;20031;-68
2022/05/30 11:36:51;;;;;;;2.30;0.63;;;;;;;25.84;28.23;101139.84;5047790;28;20018;-68
2022/05/30 11:39:28;;;;;;;2.70;0.70;;;;;;;25.59;28.04;101137.06;5051415;28;20024;-67
2022/05/30 11:42:26;;;;;;;1.23;0.52;;;;;;;25.43;28.61;101137.53;5052241;28;20670;-66
2022/05/30 11:44:59;;;;;;;3.67;0.77;;;;;;;25.36;28.47;101140.31;5049462;28;20036;-67
2022/05/30 11:47:50;;;;;;;1.75;0.75;;;;;;;25.37;28.15;101132.94;5052600;28;20471;-67
2022/05/30 11:50:36;;;;;;;3.45;1.15;;;;;;;25.41;28.32;101137.75;5067948;28;20031;-67